createdAt,value
2019-05-01T00:00:34.154Z,12
2019-05-01T00:01:43.618Z,12
2019-05-01T00:02:53.051Z,12
2019-05-01T00:04:02.500Z,12
2019-05-01T00:05:11.969Z,12
2019-05-01T00:06:21.458Z,11.9
2019-05-01T00:07:30.809Z,12
2019-05-01T00:08:40.266Z,12.1
2019-05-01T00:09:49.712Z,12.1
2019-05-01T00:10:59.134Z,12.1
2019-05-01T00:12:08.565Z,12
2019-05-01T00:13:18.114Z,12
2019-05-01T00:14:27.448Z,11.8
2019-05-01T00:15:36.907Z,11.8
2019-05-01T00:16:46.305Z,11.9
2019-05-01T00:17:55.741Z,11.8
2019-05-01T00:19:05.217Z,11.8
2019-05-01T00:20:14.642Z,11.9
2019-05-01T00:21:24.088Z,11.9
2019-05-01T00:22:33.492Z,11.8
2019-05-01T00:23:42.926Z,11.8
2019-05-01T00:24:52.349Z,11.9
2019-05-01T00:26:01.954Z,11.9
2019-05-01T00:27:11.353Z,11.9
2019-05-01T00:28:20.700Z,12
2019-05-01T00:29:30.124Z,12.1
2019-05-01T00:30:39.545Z,12.2
2019-05-01T00:31:48.970Z,12.2
2019-05-01T00:32:58.524Z,12.2
2019-05-01T00:34:07.863Z,12.1
2019-05-01T00:35:17.344Z,12.1
2019-05-01T00:36:26.713Z,12.1
2019-05-01T00:37:36.176Z,12.1
2019-05-01T00:38:45.638Z,12
2019-05-01T00:39:55.065Z,12
2019-05-01T00:41:04.440Z,12
2019-05-01T00:42:13.885Z,11.9
2019-05-01T00:43:23.384Z,11.9
2019-05-01T00:44:32.753Z,11.9
2019-05-01T00:45:42.426Z,11.9
2019-05-01T00:46:51.781Z,12
2019-05-01T00:48:01.075Z,11.9
2019-05-01T00:49:10.497Z,11.9
2019-05-01T00:50:19.935Z,11.9
2019-05-01T00:51:29.376Z,11.9
2019-05-01T00:52:38.855Z,12
2019-05-01T00:53:48.285Z,12
2019-05-01T00:54:57.707Z,12
2019-05-01T00:56:07.193Z,12
2019-05-01T00:57:16.610Z,12
2019-05-01T00:58:25.982Z,12
2019-05-01T00:59:35.669Z,11.9
2019-05-01T01:00:44.948Z,11.9
2019-05-01T01:01:54.292Z,12
2019-05-01T01:03:03.799Z,12
2019-05-01T01:04:13.378Z,12
2019-05-01T01:05:23.116Z,12
2019-05-01T01:06:32.246Z,12
2019-05-01T01:07:41.694Z,12
2019-05-01T01:08:51.747Z,12
2019-05-01T01:10:00.854Z,12
2019-05-01T01:11:10.270Z,12
2019-05-01T01:12:19.717Z,12
2019-05-01T01:13:29.148Z,12.1
2019-05-01T01:14:38.581Z,12
2019-05-01T01:15:48.026Z,12
2019-05-01T01:16:57.472Z,12
2019-05-01T01:18:06.914Z,12.1
2019-05-01T01:19:16.402Z,12.1
2019-05-01T01:20:25.831Z,12.1
2019-05-01T01:21:35.355Z,12.1
2019-05-01T01:22:44.617Z,12
2019-05-01T01:23:54.062Z,12
2019-05-01T01:25:03.537Z,12.1
2019-05-01T01:26:13.048Z,12.1
2019-05-01T01:27:22.367Z,12
2019-05-01T01:28:31.855Z,12.1
2019-05-01T01:29:41.252Z,12
2019-05-01T01:30:56.300Z,12.1
2019-05-01T01:32:00.287Z,12.1
2019-05-01T01:33:09.583Z,12
2019-05-01T01:34:19.009Z,12.1
2019-05-01T01:35:28.548Z,12.1
2019-05-01T01:36:37.862Z,12.1
2019-05-01T01:37:47.352Z,12.1
2019-05-01T01:38:56.752Z,12.1
2019-05-01T01:40:06.171Z,12.2
2019-05-01T01:41:15.623Z,12.1
2019-05-01T01:42:25.126Z,12.2
2019-05-01T01:43:34.491Z,12.1
2019-05-01T01:44:43.929Z,12.1
2019-05-01T01:45:53.386Z,12.1
2019-05-01T01:47:02.808Z,12.1
2019-05-01T01:48:12.247Z,12.1
2019-05-01T01:49:21.980Z,12.1
2019-05-01T01:50:31.119Z,12.1
2019-05-01T01:51:40.650Z,12.1
2019-05-01T01:52:49.992Z,12.1
2019-05-01T01:53:59.429Z,12.1
2019-05-01T01:55:08.907Z,12.1
2019-05-01T01:56:18.461Z,12.1
2019-05-01T01:57:27.735Z,12.1
2019-05-01T01:58:37.209Z,12.1
2019-05-01T01:59:46.686Z,12.1
2019-05-01T02:01:08.402Z,12.1
2019-05-01T02:02:05.487Z,12.1
2019-05-01T02:03:14.959Z,12.1
2019-05-01T02:04:24.364Z,12.1
2019-05-01T02:05:33.801Z,12.1
2019-05-01T02:06:43.240Z,12.1
2019-05-01T02:07:52.693Z,12.1
2019-05-01T02:09:02.117Z,12.2
2019-05-01T02:10:11.640Z,12.1
2019-05-01T02:11:21.037Z,12.1
2019-05-01T02:12:30.522Z,12.1
2019-05-01T02:13:39.867Z,12.1
2019-05-01T02:14:49.317Z,12.1
2019-05-01T02:15:58.760Z,12.1
2019-05-01T02:17:08.187Z,12.1
2019-05-01T02:18:17.624Z,12.1
2019-05-01T02:19:27.067Z,12.1
2019-05-01T02:20:36.679Z,12.1
2019-05-01T02:21:45.956Z,12.1
2019-05-01T02:22:55.375Z,12.1
2019-05-01T02:24:05.055Z,12
2019-05-01T02:25:14.291Z,12.1
2019-05-01T02:26:23.924Z,12.1
2019-05-01T02:27:33.136Z,12
2019-05-01T02:28:42.559Z,12.1
2019-05-01T02:29:51.982Z,12.1
2019-05-01T02:31:01.430Z,12.1
2019-05-01T02:32:10.856Z,12
2019-05-01T02:33:20.410Z,12
2019-05-01T02:34:29.752Z,12
2019-05-01T02:35:39.190Z,12
2019-05-01T02:36:49.564Z,12
2019-05-01T02:37:58.065Z,12
2019-05-01T02:39:07.498Z,12
2019-05-01T02:40:16.941Z,12
2019-05-01T02:41:26.461Z,11.9
2019-05-01T02:42:35.843Z,11.9
2019-05-01T02:43:45.372Z,11.9
2019-05-01T02:44:54.726Z,11.9
2019-05-01T02:46:04.202Z,11.9
2019-05-01T02:47:13.638Z,11.8
2019-05-01T02:48:22.980Z,11.9
2019-05-01T02:49:32.409Z,11.8
2019-05-01T02:50:42.034Z,11.8
2019-05-01T02:51:51.379Z,11.9
2019-05-01T02:53:00.708Z,11.8
2019-05-01T02:54:10.209Z,11.9
2019-05-01T02:55:19.621Z,11.8
2019-05-01T02:56:29.061Z,11.8
2019-05-01T02:57:38.457Z,11.8
2019-05-01T02:58:47.868Z,11.8
2019-05-01T02:59:57.295Z,11.8
2019-05-01T03:01:06.739Z,11.7
2019-05-01T03:02:16.238Z,11.7
2019-05-01T03:03:25.774Z,11.7
2019-05-01T03:04:35.031Z,11.7
2019-05-01T03:05:44.482Z,11.6
2019-05-01T03:06:53.898Z,11.6
2019-05-01T03:08:03.321Z,11.6
2019-05-01T03:09:12.873Z,11.6
2019-05-01T03:10:22.246Z,11.5
2019-05-01T03:12:41.060Z,11.5
2019-05-01T03:13:50.473Z,11.5
2019-05-01T03:14:59.896Z,11.5
2019-05-01T03:16:09.328Z,11.5
2019-05-01T03:17:18.775Z,11.5
2019-05-01T03:18:28.180Z,11.5
2019-05-01T03:19:37.654Z,11.6
2019-05-01T03:20:47.304Z,11.5
2019-05-01T03:21:56.478Z,11.5
2019-05-01T03:23:05.879Z,11.5
2019-05-01T03:24:15.399Z,11.5
2019-05-01T03:25:24.787Z,11.4
2019-05-01T03:26:34.240Z,11.4
2019-05-01T03:27:43.585Z,11.4
2019-05-01T03:28:53.017Z,11.4
2019-05-01T03:30:02.449Z,11.4
2019-05-01T03:32:21.315Z,11.4
2019-05-01T03:33:30.875Z,11.4
2019-05-01T03:34:40.145Z,11.3
2019-05-01T03:35:49.613Z,11.3
2019-05-01T03:36:59.019Z,11.2
2019-05-01T03:38:08.478Z,11.2
2019-05-01T03:39:17.846Z,11.2
2019-05-01T03:41:36.680Z,11.1
2019-05-01T03:42:46.137Z,11.1
2019-05-01T03:43:55.630Z,11.1
2019-05-01T03:45:04.960Z,11.1
2019-05-01T03:46:14.405Z,11.1
2019-05-01T03:47:23.810Z,11.1
2019-05-01T03:48:33.238Z,11.1
2019-05-01T03:49:42.626Z,11.1
2019-05-01T03:50:52.037Z,11
2019-05-01T03:52:01.526Z,11
2019-05-01T03:53:10.992Z,11.1
2019-05-01T03:54:20.514Z,11.1
2019-05-01T03:56:39.201Z,11
2019-05-01T03:57:48.589Z,11
2019-05-01T03:58:57.993Z,11
2019-05-01T04:00:07.376Z,11
2019-05-01T04:01:16.788Z,11
2019-05-01T04:02:33.367Z,11
2019-05-01T04:03:35.649Z,11
2019-05-01T04:04:45.073Z,11
2019-05-01T04:05:54.590Z,11
2019-05-01T04:07:03.918Z,11
2019-05-01T04:08:13.271Z,11
2019-05-01T04:09:22.689Z,11
2019-05-01T04:10:32.099Z,11
2019-05-01T04:11:41.639Z,11
2019-05-01T04:12:50.945Z,11
2019-05-01T04:14:00.358Z,11
2019-05-01T04:15:09.785Z,11
2019-05-01T04:16:19.237Z,11
2019-05-01T04:17:28.624Z,11
2019-05-01T04:18:37.993Z,11
2019-05-01T04:19:47.482Z,11
2019-05-01T04:20:56.848Z,11
2019-05-01T04:22:06.349Z,11
2019-05-01T04:23:15.651Z,11
2019-05-01T04:24:25.056Z,11
2019-05-01T04:25:34.489Z,11
2019-05-01T04:26:43.884Z,11
2019-05-01T04:27:53.308Z,10.9
2019-05-01T04:29:02.710Z,10.9
2019-05-01T04:30:12.138Z,10.9
2019-05-01T04:31:21.601Z,11
2019-05-01T04:32:30.944Z,10.9
2019-05-01T04:33:40.374Z,10.9
2019-05-01T04:34:49.761Z,10.9
2019-05-01T04:35:59.201Z,10.9
2019-05-01T04:37:08.577Z,11
2019-05-01T04:38:17.995Z,11
2019-05-01T04:39:27.425Z,10.9
2019-05-01T04:40:36.820Z,10.9
2019-05-01T04:41:46.363Z,10.9
2019-05-01T04:42:55.639Z,10.9
2019-05-01T04:44:05.069Z,10.9
2019-05-01T04:45:14.470Z,10.9
2019-05-01T04:46:23.927Z,10.9
2019-05-01T04:47:33.382Z,10.9
2019-05-01T04:48:42.701Z,10.8
2019-05-01T04:49:52.123Z,10.8
2019-05-01T04:51:01.531Z,10.8
2019-05-01T04:52:10.981Z,10.9
2019-05-01T04:53:20.422Z,10.8
2019-05-01T04:54:29.761Z,10.8
2019-05-01T04:55:39.187Z,10.9
2019-05-01T04:56:48.678Z,10.9
2019-05-01T04:57:58.024Z,10.9
2019-05-01T04:59:07.557Z,10.9
2019-05-01T05:00:16.837Z,10.8
2019-05-01T05:01:26.244Z,10.8
2019-05-01T05:02:35.803Z,10.9
2019-05-01T05:03:45.165Z,10.9
2019-05-01T05:04:54.514Z,10.9
2019-05-01T05:06:03.894Z,11
2019-05-01T05:07:13.315Z,11.1
2019-05-01T05:08:22.731Z,11.6
2019-05-01T05:09:32.305Z,12
2019-05-01T05:10:41.655Z,12.3
2019-05-01T05:11:50.998Z,12.6
2019-05-01T05:13:00.426Z,13.5
2019-05-01T05:14:09.885Z,14.1
2019-05-01T05:15:19.290Z,14.8
2019-05-01T05:16:28.729Z,15.2
2019-05-01T05:17:38.184Z,14.8
2019-05-01T05:18:47.646Z,15.4
2019-05-01T05:19:57.078Z,15.3
2019-05-01T05:21:06.573Z,14.8
2019-05-01T05:22:16.577Z,14
2019-05-01T05:23:25.467Z,13.8
2019-05-01T05:24:34.982Z,13.2
2019-05-01T05:25:45.083Z,13.5
2019-05-01T05:26:53.944Z,12.9
2019-05-01T05:28:03.332Z,12.9
2019-05-01T05:29:12.801Z,13.2
2019-05-01T05:30:22.277Z,13.2
2019-05-01T05:31:31.789Z,13.5
2019-05-01T05:32:41.213Z,14.2
2019-05-01T05:33:50.739Z,14.7
2019-05-01T05:35:00.307Z,15.3
2019-05-01T05:36:09.739Z,15.2
2019-05-01T05:37:19.165Z,13.9
2019-05-01T05:38:28.715Z,13.5
2019-05-01T05:39:38.136Z,13.5
2019-05-01T05:40:47.649Z,13.5
2019-05-01T05:41:57.966Z,13.2
2019-05-01T05:43:06.649Z,13.2
2019-05-01T05:44:16.114Z,13.7
2019-05-01T05:45:25.613Z,14.7
2019-05-01T05:46:35.191Z,15.7
2019-05-01T05:47:44.630Z,14.9
2019-05-01T05:48:54.157Z,15.1
2019-05-01T05:50:03.994Z,14.2
2019-05-01T05:51:13.196Z,15.3
2019-05-01T05:52:22.789Z,15.3
2019-05-01T05:53:32.274Z,14.6
2019-05-01T05:54:41.890Z,14.9
2019-05-01T05:55:51.832Z,13.5
2019-05-01T05:57:00.882Z,13.7
2019-05-01T05:58:10.463Z,13.8
2019-05-01T05:59:19.956Z,13.9
2019-05-01T06:00:29.529Z,14.2
2019-05-01T06:01:39.023Z,13.6
2019-05-01T06:02:48.561Z,13.7
2019-05-01T06:03:58.079Z,13.6
2019-05-01T06:05:07.577Z,13.8
2019-05-01T06:06:17.185Z,13.5
2019-05-01T06:07:26.666Z,13
2019-05-01T06:08:36.167Z,12.7
2019-05-01T06:09:48.433Z,12.7
2019-05-01T06:10:58.394Z,12.9
2019-05-01T06:12:08.525Z,12.9
2019-05-01T06:13:17.804Z,13
2019-05-01T06:14:26.892Z,13.1
2019-05-01T06:15:36.517Z,13.3
2019-05-01T06:16:46.732Z,13
2019-05-01T06:17:52.371Z,12.9
2019-05-01T06:19:01.927Z,12.5
2019-05-01T06:20:11.432Z,12.9
2019-05-01T06:21:21.001Z,12.9
2019-05-01T06:22:30.473Z,13.1
2019-05-01T06:23:40.011Z,13.3
2019-05-01T06:24:49.527Z,13.1
2019-05-01T06:27:08.794Z,13.3
2019-05-01T06:28:19.733Z,13.3
2019-05-01T06:29:30.908Z,13
2019-05-01T06:30:37.224Z,13.1
2019-05-01T06:31:46.711Z,12.7
2019-05-01T06:32:56.369Z,12.7
2019-05-01T06:34:05.804Z,12.8
2019-05-01T06:35:15.285Z,13.3
2019-05-01T06:36:24.817Z,13.3
2019-05-01T06:37:34.444Z,13
2019-05-01T06:38:44.349Z,12.9
2019-05-01T06:39:53.424Z,13
2019-05-01T06:41:03.159Z,13.2
2019-05-01T06:42:14.956Z,12.9
2019-05-01T06:43:25.190Z,13.6
2019-05-01T06:44:33.316Z,13.5
2019-05-01T06:45:41.187Z,13.8
2019-05-01T06:46:50.805Z,13.5
2019-05-01T06:49:09.789Z,12.7
2019-05-01T06:50:19.294Z,12.6
2019-05-01T06:51:28.891Z,12.9
2019-05-01T06:52:38.302Z,12.5
2019-05-01T06:53:47.838Z,12.5
2019-05-01T06:54:57.349Z,12.3
2019-05-01T06:56:07.581Z,12.1
2019-05-01T06:57:16.441Z,12.2
2019-05-01T06:58:25.893Z,11.7
2019-05-01T06:59:35.428Z,11.9
2019-05-01T07:00:46.152Z,11.7
2019-05-01T07:01:58.242Z,11.6
2019-05-01T07:03:05.917Z,11.6
2019-05-01T07:04:14.589Z,11.7
2019-05-01T07:05:24.109Z,11.7
2019-05-01T07:06:33.608Z,11.7
2019-05-01T07:07:43.281Z,11.7
2019-05-01T07:08:52.618Z,11.7
2019-05-01T07:10:02.168Z,11.9
2019-05-01T07:11:15.399Z,11.9
2019-05-01T07:12:23.789Z,12
2019-05-01T07:13:30.696Z,12.2
2019-05-01T07:14:41.229Z,12.1
2019-05-01T07:15:50.880Z,12.1
2019-05-01T07:17:00.185Z,11.9
2019-05-01T07:18:11.437Z,12
2019-05-01T07:19:19.172Z,12
2019-05-01T07:20:28.729Z,12.3
2019-05-01T07:21:38.164Z,12.5
2019-05-01T07:22:47.663Z,12.2
2019-05-01T07:23:57.167Z,12.6
2019-05-01T07:25:06.693Z,12.8
2019-05-01T07:26:16.472Z,12.6
2019-05-01T07:27:25.687Z,12.7
2019-05-01T07:28:36.390Z,12.9
2019-05-01T07:29:46.640Z,12.9
2019-05-01T07:30:56.154Z,13.1
2019-05-01T07:32:06.255Z,12.8
2019-05-01T07:33:16.553Z,12.8
2019-05-01T07:34:26.128Z,12.6
2019-05-01T07:35:36.652Z,12.5
2019-05-01T07:36:45.544Z,12.5
2019-05-01T07:37:52.447Z,12.6
2019-05-01T07:39:01.942Z,12.3
2019-05-01T07:40:11.521Z,12.6
2019-05-01T07:41:21.023Z,12.5
2019-05-01T07:42:30.649Z,12.7
2019-05-01T07:43:40.117Z,13.1
2019-05-01T07:44:49.618Z,13.6
2019-05-01T07:45:59.083Z,13.5
2019-05-01T07:47:08.704Z,13.8
2019-05-01T07:48:18.235Z,13.5
2019-05-01T07:49:27.708Z,13.6
2019-05-01T07:50:37.299Z,13.8
2019-05-01T07:51:46.790Z,13.7
2019-05-01T07:52:56.444Z,13.9
2019-05-01T07:54:08.718Z,13.8
2019-05-01T07:55:18.071Z,13.5
2019-05-01T07:56:27.997Z,13.7
2019-05-01T07:57:39.179Z,13.7
2019-05-01T07:58:47.403Z,14
2019-05-01T07:59:58.109Z,14.2
2019-05-01T08:01:03.354Z,14.7
2019-05-01T08:02:12.915Z,14.9
2019-05-01T08:03:22.610Z,14.6
2019-05-01T08:05:45.378Z,15.2
2019-05-01T08:06:51.991Z,15.6
2019-05-01T08:08:02.795Z,15.1
2019-05-01T08:09:11.167Z,14.9
2019-05-01T08:10:20.898Z,14.8
2019-05-01T08:11:29.833Z,14.8
2019-05-01T08:12:39.377Z,14.6
2019-05-01T08:13:48.946Z,14.7
2019-05-01T08:14:58.620Z,14.6
2019-05-01T08:16:08.760Z,14.8
2019-05-01T08:17:18.209Z,15.1
2019-05-01T08:18:27.850Z,15.8
2019-05-01T08:19:39.255Z,15.8
2019-05-01T08:21:56.858Z,15.4
2019-05-01T08:23:07.582Z,15.5
2019-05-01T08:24:17.869Z,15.6
2019-05-01T08:25:28.602Z,15.6
2019-05-01T08:26:39.532Z,15.5
2019-05-01T08:27:46.545Z,15.4
2019-05-01T08:28:56.140Z,15
2019-05-01T08:30:05.774Z,15.6
2019-05-01T08:31:15.468Z,15.1
2019-05-01T08:32:25.106Z,16.2
2019-05-01T08:33:34.822Z,16.2
2019-05-01T08:34:48.920Z,16.6
2019-05-01T08:35:54.250Z,15.7
2019-05-01T08:37:06.384Z,16.6
2019-05-01T08:38:13.713Z,17.3
2019-05-01T08:39:23.458Z,18.8
2019-05-01T08:40:33.254Z,19.4
2019-05-01T08:41:43.013Z,18.7
2019-05-01T08:42:52.792Z,19
2019-05-01T08:44:02.543Z,18.7
2019-05-01T08:45:12.437Z,18.9
2019-05-01T08:46:24.718Z,18.9
2019-05-01T08:47:32.167Z,19.3
2019-05-01T08:48:41.833Z,19.8
2019-05-01T08:49:51.736Z,20.2
2019-05-01T08:51:01.537Z,18.9
2019-05-01T08:52:13.846Z,18.9
2019-05-01T08:53:22.038Z,18.6
2019-05-01T08:54:33.499Z,18
2019-05-01T08:55:44.983Z,17.9
2019-05-01T08:56:52.866Z,19.3
2019-05-01T08:58:00.715Z,19.5
2019-05-01T08:59:10.586Z,18.9
2019-05-01T09:00:20.535Z,19.7
2019-05-01T09:01:30.271Z,18.7
2019-05-01T09:02:41.458Z,19.6
2019-05-01T09:03:54.074Z,19.9
2019-05-01T09:05:02.269Z,19.3
2019-05-01T09:06:09.856Z,20.2
2019-05-01T09:07:21.610Z,19.8
2019-05-01T09:08:31.935Z,19.8
2019-05-01T09:09:44.806Z,19.9
2019-05-01T09:10:49.958Z,19.7
2019-05-01T09:11:59.371Z,19.6
2019-05-01T09:13:10.439Z,20.5
2019-05-01T09:14:20.607Z,20.1
2019-05-01T09:15:30.189Z,19.6
2019-05-01T09:16:40.321Z,20.8
2019-05-01T09:17:50.024Z,21
2019-05-01T09:18:59.922Z,21.3
2019-05-01T09:20:09.894Z,21.4
2019-05-01T09:21:19.780Z,22.9
2019-05-01T09:22:29.796Z,23
2019-05-01T09:23:39.705Z,19.8
2019-05-01T09:24:49.611Z,20.6
2019-05-01T09:25:59.536Z,20.1
2019-05-01T09:27:09.457Z,19.2
2019-05-01T09:28:19.687Z,20.6
2019-05-01T09:29:29.335Z,20.8
2019-05-01T09:30:39.204Z,21.3
2019-05-01T09:31:49.124Z,21.3
2019-05-01T09:32:59.073Z,21.6
2019-05-01T09:34:09.503Z,22.7
2019-05-01T09:35:19.748Z,22.8
2019-05-01T09:36:28.934Z,23.2
2019-05-01T09:37:38.859Z,21.8
2019-05-01T09:38:50.064Z,21.9
2019-05-01T09:39:58.756Z,22.2
2019-05-01T09:41:08.766Z,21.1
2019-05-01T09:42:23.572Z,21.5
2019-05-01T09:43:30.864Z,21.6
2019-05-01T09:44:38.752Z,22
2019-05-01T09:45:48.495Z,22.1
2019-05-01T09:46:58.433Z,21.4
2019-05-01T09:48:08.382Z,21.3
2019-05-01T09:49:19.504Z,20.2
2019-05-01T09:50:30.345Z,20.7
2019-05-01T09:51:39.625Z,21.5
2019-05-01T09:53:58.194Z,22.5
2019-05-01T09:55:08.153Z,22.5
2019-05-01T09:56:19.132Z,22.7
2019-05-01T09:57:28.107Z,23.4
2019-05-01T09:58:38.078Z,23.6
2019-05-01T09:59:48.078Z,23.9
2019-05-01T10:00:58.085Z,23.5
2019-05-01T10:02:09.091Z,24.7
2019-05-01T10:03:18.325Z,24.5
2019-05-01T10:04:30.061Z,24.5
2019-05-01T10:05:42.580Z,25
2019-05-01T10:06:52.106Z,24.6
2019-05-01T10:08:00.020Z,24.2
2019-05-01T10:09:11.908Z,23.7
2019-05-01T10:10:17.999Z,23.2
2019-05-01T10:11:28.013Z,23
2019-05-01T10:12:41.687Z,22.2
2019-05-01T10:13:48.024Z,21.5
2019-05-01T10:14:58.021Z,21.6
2019-05-01T10:16:08.034Z,22.3
2019-05-01T10:17:17.993Z,21.5
2019-05-01T10:18:28.412Z,21.8
2019-05-01T10:19:37.948Z,22.5
2019-05-01T10:20:47.918Z,21.9
2019-05-01T10:22:01.997Z,20.9
2019-05-01T10:23:12.869Z,22.4
2019-05-01T10:24:17.807Z,22.7
2019-05-01T10:25:28.465Z,23.5
2019-05-01T10:26:37.748Z,21.8
2019-05-01T10:27:47.937Z,22.7
2019-05-01T10:28:57.678Z,23.4
2019-05-01T10:30:07.648Z,23.3
2019-05-01T10:31:17.597Z,21.3
2019-05-01T10:32:27.660Z,22.7
2019-05-01T10:33:37.683Z,23.7
2019-05-01T10:34:48.058Z,23.8
2019-05-01T10:35:57.530Z,23.2
2019-05-01T10:37:07.608Z,23.7
2019-05-01T10:38:17.545Z,23.1
2019-05-01T10:39:30.049Z,23.3
2019-05-01T10:40:37.447Z,23.7
2019-05-01T10:41:47.887Z,24.9
2019-05-01T10:42:57.474Z,24.4
2019-05-01T10:44:08.035Z,23.6
2019-05-01T10:45:17.437Z,22.3
2019-05-01T10:46:27.753Z,22.1
2019-05-01T10:47:37.407Z,21.5
2019-05-01T10:48:47.382Z,21.4
2019-05-01T10:49:57.360Z,21.4
2019-05-01T10:51:07.310Z,21.9
2019-05-01T10:52:17.273Z,20.1
2019-05-01T10:53:27.245Z,22.1
2019-05-01T10:54:37.167Z,23.2
2019-05-01T10:55:47.160Z,23.1
2019-05-01T10:56:58.770Z,23.4
2019-05-01T10:58:07.123Z,22.6
2019-05-01T10:59:16.989Z,22.2
2019-05-01T11:00:26.980Z,22.1
2019-05-01T11:01:37.195Z,22.2
2019-05-01T11:02:46.879Z,22.9
2019-05-01T11:03:56.846Z,22.7
2019-05-01T11:05:06.923Z,22.4
2019-05-01T11:06:16.662Z,21.6
2019-05-01T11:07:26.602Z,20.6
2019-05-01T11:08:36.598Z,20.8
2019-05-01T11:09:46.486Z,21.2
2019-05-01T11:10:56.528Z,20.6
2019-05-01T11:12:06.370Z,21.2
2019-05-01T11:13:16.290Z,22.4
2019-05-01T11:14:26.252Z,21
2019-05-01T11:15:36.127Z,21.4
2019-05-01T11:17:55.952Z,21.6
2019-05-01T11:19:05.893Z,21
2019-05-01T11:20:15.833Z,22.9
2019-05-01T11:21:25.831Z,24.4
2019-05-01T11:22:35.746Z,24.8
2019-05-01T11:23:45.763Z,25.2
2019-05-01T11:24:55.672Z,24.8
2019-05-01T11:26:05.795Z,22.3
2019-05-01T11:27:15.615Z,22.7
2019-05-01T11:28:25.581Z,22.6
2019-05-01T11:29:35.572Z,21.2
2019-05-01T11:30:45.572Z,22.5
2019-05-01T11:31:55.498Z,23.1
2019-05-01T11:33:05.432Z,22.7
2019-05-01T11:34:15.383Z,21.3
2019-05-01T11:35:25.347Z,21.9
2019-05-01T11:36:35.566Z,22.4
2019-05-01T11:37:45.296Z,22.2
2019-05-01T11:38:55.195Z,22.3
2019-05-01T11:40:05.297Z,22.8
2019-05-01T11:41:15.089Z,21.6
2019-05-01T11:42:25.003Z,23
2019-05-01T11:43:34.980Z,22.1
2019-05-01T11:44:44.918Z,22.6
2019-05-01T11:45:54.840Z,23.3
2019-05-01T11:48:14.718Z,22
2019-05-01T11:49:25.048Z,22.7
2019-05-01T11:50:34.636Z,22.5
2019-05-01T11:51:44.645Z,23.7
2019-05-01T11:52:54.662Z,24
2019-05-01T11:54:04.590Z,24.6
2019-05-01T11:55:14.570Z,24.4
2019-05-01T11:56:24.496Z,24.2
2019-05-01T11:57:34.442Z,23.2
2019-05-01T11:58:44.524Z,23.7
2019-05-01T11:59:54.471Z,24.3
2019-05-01T12:01:04.459Z,24.9
2019-05-01T12:02:14.474Z,25.4
2019-05-01T12:03:24.484Z,26.2
2019-05-01T12:04:34.541Z,25.5
2019-05-01T12:05:44.537Z,27
2019-05-01T12:06:54.686Z,24.4
2019-05-01T12:08:04.647Z,24.4
2019-05-01T12:09:14.730Z,24.8
2019-05-01T12:10:24.720Z,23.4
2019-05-01T12:11:34.783Z,24.5
2019-05-01T12:12:44.804Z,24.7
2019-05-01T12:13:54.853Z,24.2
2019-05-01T12:15:04.892Z,23.5
2019-05-01T12:16:15.010Z,23.2
2019-05-01T12:17:24.989Z,23
2019-05-01T12:18:35.123Z,22.9
2019-05-01T12:19:45.027Z,23.7
2019-05-01T12:20:55.062Z,22.9
2019-05-01T12:22:05.047Z,22.4
2019-05-01T12:23:15.094Z,21.9
2019-05-01T12:24:25.150Z,22
2019-05-01T12:25:35.274Z,22.3
2019-05-01T12:26:45.097Z,23.8
2019-05-01T12:27:55.282Z,23.6
2019-05-01T12:29:05.050Z,24.3
2019-05-01T12:30:15.517Z,24.5
2019-05-01T12:31:25.104Z,23.5
2019-05-01T12:32:35.221Z,24.2
2019-05-01T12:33:45.043Z,23.8
2019-05-01T12:34:55.068Z,23.5
2019-05-01T12:36:05.043Z,23.2
2019-05-01T12:37:15.038Z,22.1
2019-05-01T12:38:25.138Z,22
2019-05-01T12:39:35.225Z,22.6
2019-05-01T12:40:45.078Z,22.8
2019-05-01T12:41:55.010Z,23.6
2019-05-01T12:43:05.011Z,23.1
2019-05-01T12:44:14.971Z,21.9
2019-05-01T12:45:24.942Z,23
2019-05-01T12:46:35.144Z,22.1
2019-05-01T12:47:45.135Z,22.5
2019-05-01T12:48:54.889Z,23.3
2019-05-01T12:50:04.841Z,22.8
2019-05-01T12:51:14.813Z,23
2019-05-01T12:52:25.541Z,22.8
2019-05-01T12:54:44.738Z,23.2
2019-05-01T12:57:04.717Z,23.2
2019-05-01T12:58:14.768Z,23.4
2019-05-01T12:59:24.676Z,23.4
2019-05-01T13:00:34.641Z,24.3
2019-05-01T13:01:44.689Z,24.1
2019-05-01T13:02:54.630Z,24.8
2019-05-01T13:04:04.642Z,23.3
2019-05-01T13:05:14.685Z,24.2
2019-05-01T13:06:25.034Z,23.8
2019-05-01T13:07:34.650Z,24.1
2019-05-01T13:08:44.650Z,22.7
2019-05-01T13:09:54.665Z,22.6
2019-05-01T13:11:04.678Z,23.1
2019-05-01T13:12:14.658Z,22.6
2019-05-01T13:13:24.763Z,22.4
2019-05-01T13:14:34.697Z,22.5
2019-05-01T13:15:44.725Z,22.6
2019-05-01T13:16:54.594Z,22.7
2019-05-01T13:18:04.861Z,22.8
2019-05-01T13:19:14.551Z,22.4
2019-05-01T13:20:24.543Z,22.4
2019-05-01T13:21:34.539Z,22.2
2019-05-01T13:22:44.527Z,23
2019-05-01T13:23:54.520Z,23.4
2019-05-01T13:25:04.514Z,22.3
2019-05-01T13:26:14.589Z,22.3
2019-05-01T13:27:24.567Z,23.2
2019-05-01T13:28:34.502Z,21.8
2019-05-01T13:29:44.505Z,22.1
2019-05-01T13:30:54.534Z,22.6
2019-05-01T13:32:04.519Z,22.3
2019-05-01T13:33:14.612Z,23.1
2019-05-01T13:34:24.613Z,22.3
2019-05-01T13:35:34.522Z,22.1
2019-05-01T13:36:44.662Z,22.2
2019-05-01T13:37:54.707Z,22.9
2019-05-01T13:39:04.642Z,23.7
2019-05-01T13:40:14.607Z,23.3
2019-05-01T13:41:24.675Z,23.8
2019-05-01T13:42:34.793Z,24.4
2019-05-01T13:43:44.748Z,24.3
2019-05-01T13:44:54.769Z,22.9
2019-05-01T13:46:04.849Z,24.1
2019-05-01T13:47:14.890Z,23.6
2019-05-01T13:48:24.983Z,23.1
2019-05-01T13:49:34.975Z,23.7
2019-05-01T13:50:45.026Z,23.3
2019-05-01T13:51:55.433Z,24
2019-05-01T13:53:05.262Z,23.2
2019-05-01T13:54:15.363Z,23.7
2019-05-01T13:55:25.441Z,23.3
2019-05-01T13:56:35.675Z,23.3
2019-05-01T13:57:45.643Z,23.5
2019-05-01T13:58:55.703Z,23.8
2019-05-01T14:00:05.675Z,22.8
2019-05-01T14:01:15.812Z,23.5
2019-05-01T14:02:25.877Z,23.1
2019-05-01T14:03:35.989Z,21.2
2019-05-01T14:04:46.155Z,21.6
2019-05-01T14:05:56.238Z,22.5
2019-05-01T14:07:16.095Z,23
2019-05-01T14:08:16.412Z,22.7
2019-05-01T14:09:26.497Z,23.2
2019-05-01T14:10:37.000Z,23.3
2019-05-01T14:11:46.747Z,23.1
2019-05-01T14:12:56.852Z,23.5
2019-05-01T14:14:06.987Z,23.7
2019-05-01T14:15:17.039Z,23.6
2019-05-01T14:16:27.260Z,22.4
2019-05-01T14:17:37.318Z,21.6
2019-05-01T14:18:47.576Z,22.4
2019-05-01T14:19:57.679Z,23.1
2019-05-01T14:21:07.773Z,22.6
2019-05-01T14:22:17.976Z,22.9
2019-05-01T14:23:28.108Z,23.2
2019-05-01T14:24:38.358Z,23.8
2019-05-01T14:25:48.542Z,23.3
2019-05-01T14:26:58.696Z,22.9
2019-05-01T14:28:09.029Z,23.4
2019-05-01T14:29:19.110Z,23.3
2019-05-01T14:30:29.362Z,23.4
2019-05-01T14:31:39.677Z,22.5
2019-05-01T14:32:51.688Z,22.1
2019-05-01T14:34:00.080Z,21.7
2019-05-01T14:35:10.362Z,22.1
2019-05-01T14:36:20.559Z,22.5
2019-05-01T14:37:30.834Z,22.2
2019-05-01T14:38:41.368Z,20.8
2019-05-01T14:39:51.432Z,21.7
2019-05-01T14:41:01.616Z,22.3
2019-05-01T14:42:12.220Z,21.1
2019-05-01T14:43:22.168Z,22
2019-05-01T14:44:36.687Z,21.7
2019-05-01T14:45:42.802Z,21.2
2019-05-01T14:46:53.208Z,20.8
2019-05-01T14:48:03.385Z,21.6
2019-05-01T14:49:13.589Z,21.9
2019-05-01T14:50:24.052Z,21.7
2019-05-01T14:51:34.139Z,21.5
2019-05-01T14:52:44.446Z,21.1
2019-05-01T14:53:54.684Z,20.7
2019-05-01T14:55:04.836Z,21.3
2019-05-01T14:56:16.322Z,22.1
2019-05-01T14:57:25.383Z,22.5
2019-05-01T14:58:35.631Z,21.8
2019-05-01T14:59:45.892Z,21.2
2019-05-01T15:00:56.169Z,21.3
2019-05-01T15:02:06.580Z,22.1
2019-05-01T15:03:16.905Z,21.3
2019-05-01T15:04:27.113Z,21.6
2019-05-01T15:05:37.207Z,21
2019-05-01T15:06:47.644Z,20.6
2019-05-01T15:07:57.792Z,21.1
2019-05-01T15:09:07.982Z,21.2
2019-05-01T15:10:18.235Z,21.4
2019-05-01T15:11:28.478Z,20.3
2019-05-01T15:12:38.819Z,21.2
2019-05-01T15:13:48.994Z,20.6
2019-05-01T15:14:59.255Z,21.7
2019-05-01T15:16:09.475Z,22
2019-05-01T15:17:19.722Z,21.9
2019-05-01T15:18:29.964Z,22
2019-05-01T15:19:40.313Z,21.3
2019-05-01T15:20:50.566Z,20.7
2019-05-01T15:22:00.683Z,19.9
2019-05-01T15:23:10.922Z,20.4
2019-05-01T15:24:21.295Z,20.4
2019-05-01T15:25:31.485Z,20.4
2019-05-01T15:26:41.620Z,20.2
2019-05-01T15:27:51.838Z,19.9
2019-05-01T15:29:01.989Z,20.3
2019-05-01T15:30:12.189Z,20.3
2019-05-01T15:31:22.343Z,20.6
2019-05-01T15:32:32.486Z,20.1
2019-05-01T15:33:42.653Z,20.8
2019-05-01T15:34:53.005Z,20.9
2019-05-01T15:36:02.992Z,20.3
2019-05-01T15:37:13.174Z,20.6
2019-05-01T15:38:23.435Z,20.3
2019-05-01T15:39:33.394Z,19.8
2019-05-01T15:40:43.614Z,20.5
2019-05-01T15:41:53.687Z,20.5
2019-05-01T15:43:03.839Z,20.5
2019-05-01T15:44:13.944Z,19.2
2019-05-01T15:45:24.000Z,19.1
2019-05-01T15:46:34.140Z,19.7
2019-05-01T15:47:44.490Z,20
2019-05-01T15:48:54.458Z,20.1
2019-05-01T15:50:04.374Z,19.9
2019-05-01T15:51:14.542Z,19.5
2019-05-01T15:52:24.682Z,19.3